createdAt,value
2018-10-18T00:00:39.892Z,28.98
2018-10-18T00:03:06.536Z,28.98
2018-10-18T00:05:33.201Z,29.01
2018-10-18T00:07:59.853Z,29.04
2018-10-18T00:10:26.463Z,29.00
2018-10-18T00:12:56.091Z,29.15
2018-10-18T00:15:20.660Z,29.09
2018-10-18T00:17:48.992Z,29.10
2018-10-18T00:20:14.210Z,29.14
2018-10-18T00:22:40.692Z,29.18
2018-10-18T00:25:07.660Z,29.23
2018-10-18T00:27:34.320Z,29.22
2018-10-18T00:30:01.015Z,29.27
2018-10-18T00:32:27.592Z,29.31
2018-10-18T00:34:54.225Z,29.30
2018-10-18T00:40:07.685Z,29.40
2018-10-18T00:42:36.664Z,29.41
2018-10-18T00:45:02.509Z,29.37
2018-10-18T00:47:27.800Z,29.42
2018-10-18T00:49:54.549Z,29.44
2018-10-18T00:52:21.137Z,29.47
2018-10-18T00:54:47.773Z,29.58
2018-10-18T00:57:14.420Z,29.61
2018-10-18T00:59:41.060Z,29.59
2018-10-18T01:02:09.059Z,29.69
2018-10-18T01:04:34.332Z,29.71
2018-10-18T01:07:00.982Z,29.70
2018-10-18T01:09:27.665Z,29.79
2018-10-18T01:11:54.353Z,29.76
2018-10-18T01:14:23.265Z,29.69
2018-10-18T01:16:47.842Z,29.77
2018-10-18T01:19:14.522Z,29.78
2018-10-18T01:21:42.789Z,29.78
2018-10-18T01:24:07.870Z,29.86
2018-10-18T01:26:35.078Z,29.83
2018-10-18T01:29:01.859Z,29.90
2018-10-18T01:31:28.509Z,29.95
2018-10-18T01:33:55.238Z,29.95
2018-10-18T01:36:24.892Z,30.02
2018-10-18T01:38:51.523Z,29.99
2018-10-18T01:41:18.164Z,30.07
2018-10-18T01:43:44.835Z,30.10
2018-10-18T01:46:11.574Z,30.09
2018-10-18T01:48:38.239Z,30.17
2018-10-18T01:51:04.971Z,30.25
2018-10-18T01:53:31.620Z,30.27
2018-10-18T01:55:58.399Z,30.35
2018-10-18T01:58:25.178Z,30.33
2018-10-18T02:00:55.686Z,30.34
2018-10-18T02:03:21.322Z,30.36
2018-10-18T02:05:48.000Z,30.42
2018-10-18T02:08:14.760Z,30.41
2018-10-18T02:10:44.134Z,30.42
2018-10-18T02:13:10.867Z,30.46
2018-10-18T02:15:37.519Z,30.54
2018-10-18T02:18:04.229Z,30.45
2018-10-18T02:20:30.798Z,30.58
2018-10-18T02:22:57.475Z,30.57
2018-10-18T02:25:24.120Z,30.59
2018-10-18T02:27:50.889Z,30.56
2018-10-18T02:30:17.549Z,30.66
2018-10-18T02:32:44.216Z,30.63
2018-10-18T02:35:10.851Z,30.78
2018-10-18T02:37:37.488Z,30.68
2018-10-18T02:40:06.906Z,30.71
2018-10-18T02:42:33.538Z,30.72
2018-10-18T02:45:00.672Z,30.72
2018-10-18T02:47:27.380Z,30.75
2018-10-18T02:49:54.019Z,30.78
2018-10-18T02:52:20.676Z,30.80
2018-10-18T02:54:47.369Z,30.81
2018-10-18T02:57:16.956Z,30.84
2018-10-18T02:59:43.678Z,30.90
2018-10-18T03:02:10.301Z,30.89
2018-10-18T03:04:37.076Z,30.93
2018-10-18T03:07:03.738Z,30.97
2018-10-18T03:09:30.510Z,31.16
2018-10-18T03:11:57.174Z,31.62
2018-10-18T03:14:23.892Z,31.86
2018-10-18T03:16:50.528Z,32.26
2018-10-18T03:19:17.271Z,32.75
2018-10-18T03:21:45.279Z,32.59
2018-10-18T03:24:10.704Z,32.66
2018-10-18T03:26:39.277Z,32.53
2018-10-18T03:29:03.958Z,32.31
2018-10-18T03:31:31.004Z,32.17
2018-10-18T03:33:57.688Z,32.48
2018-10-18T03:36:27.514Z,32.09
2018-10-18T03:38:54.147Z,31.93
2018-10-18T03:41:20.951Z,31.44
2018-10-18T03:43:47.647Z,31.18
2018-10-18T03:46:14.359Z,30.89
2018-10-18T03:48:40.987Z,30.74
2018-10-18T03:51:08.991Z,30.62
2018-10-18T03:53:34.296Z,30.49
2018-10-18T03:56:00.965Z,30.33
2018-10-18T03:58:27.643Z,30.15
2018-10-18T04:00:54.279Z,30.06
2018-10-18T04:03:20.977Z,29.96
2018-10-18T04:05:47.618Z,29.80
2018-10-18T04:08:17.159Z,30.04
2018-10-18T04:10:43.803Z,30.49
2018-10-18T04:13:10.537Z,30.82
2018-10-18T04:15:37.199Z,31.02
2018-10-18T04:18:03.926Z,31.16
2018-10-18T04:20:30.501Z,31.12
2018-10-18T04:22:57.208Z,31.12
2018-10-18T04:25:30.076Z,31.27
2018-10-18T04:27:56.736Z,31.45
2018-10-18T04:30:23.342Z,31.46
2018-10-18T04:32:49.983Z,31.54
2018-10-18T04:35:16.668Z,31.56
2018-10-18T04:37:43.290Z,31.49
2018-10-18T04:40:10.083Z,31.64
2018-10-18T04:42:37.849Z,31.69
2018-10-18T04:45:03.536Z,31.74
2018-10-18T04:47:30.287Z,31.55
2018-10-18T04:49:56.993Z,31.80
2018-10-18T04:52:23.684Z,31.89
2018-10-18T04:54:50.495Z,31.87
2018-10-18T04:57:18.456Z,31.79
2018-10-18T04:59:43.903Z,31.76
2018-10-18T05:02:10.557Z,31.78
2018-10-18T05:04:37.326Z,31.74
2018-10-18T05:07:04.038Z,31.74
2018-10-18T05:09:30.629Z,31.65
2018-10-18T05:11:57.342Z,31.51
2018-10-18T05:14:24.021Z,31.51
2018-10-18T05:16:50.688Z,31.40
2018-10-18T05:19:17.522Z,31.37
2018-10-18T05:21:45.329Z,31.31
2018-10-18T05:24:12.001Z,31.31
2018-10-18T05:26:38.606Z,31.28
2018-10-18T05:29:05.613Z,31.24
2018-10-18T05:31:32.388Z,31.11
2018-10-18T05:33:58.997Z,31.04
2018-10-18T05:36:25.710Z,30.97
2018-10-18T05:38:52.355Z,30.89
2018-10-18T05:41:18.994Z,30.87
2018-10-18T05:43:45.683Z,30.68
2018-10-18T05:46:12.365Z,30.61
2018-10-18T05:48:39.048Z,30.37
2018-10-18T05:51:05.768Z,30.41
2018-10-18T05:53:32.393Z,30.37
2018-10-18T05:55:59.011Z,30.15
2018-10-18T05:58:25.748Z,30.05
2018-10-18T06:00:52.468Z,29.99
2018-10-18T06:03:19.097Z,29.92
2018-10-18T06:05:45.825Z,29.91
2018-10-18T06:08:12.510Z,30.00
2018-10-18T06:10:39.285Z,29.75
2018-10-18T06:13:05.985Z,29.77
2018-10-18T06:15:32.664Z,29.77
2018-10-18T06:17:59.450Z,29.82
2018-10-18T06:20:26.075Z,29.93
2018-10-18T06:22:52.769Z,29.50
2018-10-18T06:25:19.354Z,29.87
2018-10-18T06:27:46.028Z,29.60
2018-10-18T06:30:12.928Z,29.72
2018-10-18T06:32:39.608Z,29.59
2018-10-18T06:35:06.376Z,29.55
2018-10-18T06:37:33.140Z,29.38
2018-10-18T06:40:00.316Z,29.40
2018-10-18T06:42:26.916Z,29.22
2018-10-18T06:44:53.564Z,29.16
2018-10-18T06:47:20.269Z,29.26
2018-10-18T06:49:46.909Z,28.99
2018-10-18T06:52:13.665Z,29.02
2018-10-18T06:54:40.268Z,29.38
2018-10-18T06:57:06.905Z,29.03
2018-10-18T06:59:33.570Z,29.12
2018-10-18T07:02:00.215Z,29.06
2018-10-18T07:04:27.029Z,29.03
2018-10-18T07:06:53.708Z,28.99
2018-10-18T07:09:20.344Z,28.89
2018-10-18T07:11:47.041Z,28.82
2018-10-18T07:14:13.728Z,28.59
2018-10-18T07:16:40.716Z,28.64
2018-10-18T07:19:07.368Z,28.85
2018-10-18T07:21:34.138Z,28.51
2018-10-18T07:24:00.845Z,28.58
2018-10-18T07:26:27.555Z,28.59
2018-10-18T07:28:54.159Z,28.61
2018-10-18T07:31:20.830Z,28.55
2018-10-18T07:33:47.485Z,28.46
2018-10-18T07:36:14.216Z,28.96
2018-10-18T07:38:40.788Z,28.81
2018-10-18T07:41:07.501Z,29.02
2018-10-18T07:43:34.185Z,29.44
2018-10-18T07:46:02.751Z,29.90
2018-10-18T07:48:27.562Z,29.95
2018-10-18T07:50:54.308Z,29.97
2018-10-18T07:53:21.046Z,30.19
2018-10-18T07:55:47.697Z,30.38
2018-10-18T07:58:14.360Z,30.60
2018-10-18T08:00:43.240Z,30.34
2018-10-18T08:03:10.096Z,30.02
2018-10-18T08:05:38.834Z,30.09
2018-10-18T08:08:05.519Z,30.21
2018-10-18T08:10:33.610Z,30.29
2018-10-18T08:12:58.899Z,30.17
2018-10-18T08:15:25.590Z,29.77
2018-10-18T08:17:52.231Z,29.58
2018-10-18T08:20:18.970Z,29.74
2018-10-18T08:22:45.702Z,30.03
2018-10-18T08:25:12.494Z,30.19
2018-10-18T08:27:39.029Z,29.68
2018-10-18T08:30:05.699Z,29.72
2018-10-18T08:32:32.335Z,29.66
2018-10-18T08:34:59.073Z,29.57
2018-10-18T08:37:27.133Z,29.54
2018-10-18T08:39:52.351Z,29.63
2018-10-18T08:42:19.060Z,29.54
2018-10-18T08:44:45.735Z,29.90
2018-10-18T08:47:12.380Z,29.89
2018-10-18T08:49:40.451Z,29.75
2018-10-18T08:52:05.682Z,29.63
2018-10-18T08:54:33.619Z,29.60
2018-10-18T08:57:01.794Z,29.53
2018-10-18T08:59:28.505Z,29.33
2018-10-18T09:01:55.428Z,29.28
2018-10-18T09:04:22.127Z,29.23
2018-10-18T09:06:50.172Z,29.20
2018-10-18T09:09:17.025Z,29.01
2018-10-18T09:11:43.665Z,28.90
2018-10-18T09:14:10.400Z,29.07
2018-10-18T09:16:38.130Z,29.36
2018-10-18T09:19:04.755Z,29.50
2018-10-18T09:21:31.821Z,29.12
2018-10-18T09:23:58.566Z,29.06
2018-10-18T09:26:25.424Z,29.07
2018-10-18T09:28:51.840Z,29.01
2018-10-18T09:31:18.577Z,28.62
2018-10-18T09:33:45.151Z,28.85
2018-10-18T09:36:13.134Z,28.75
2018-10-18T09:38:38.536Z,28.84
2018-10-18T09:41:05.211Z,28.80
2018-10-18T09:43:35.512Z,28.92
2018-10-18T09:45:59.624Z,28.72
2018-10-18T09:48:26.271Z,28.88
2018-10-18T09:50:52.925Z,28.60
2018-10-18T09:53:19.555Z,29.03
2018-10-18T09:55:46.304Z,28.97
2018-10-18T09:58:12.932Z,29.10
2018-10-18T10:00:39.709Z,28.89
2018-10-18T10:03:06.375Z,28.77
2018-10-18T10:05:33.198Z,28.83
2018-10-18T10:07:59.877Z,28.76
2018-10-18T10:10:26.636Z,28.82
2018-10-18T10:12:53.373Z,28.61
2018-10-18T10:15:19.960Z,28.72
2018-10-18T10:17:46.734Z,28.74
2018-10-18T10:20:13.369Z,28.79
2018-10-18T10:22:40.080Z,28.75
2018-10-18T10:25:06.870Z,28.74
2018-10-18T10:27:33.437Z,28.83
2018-10-18T10:30:00.114Z,28.71
2018-10-18T10:32:26.753Z,28.79
2018-10-18T10:34:53.526Z,28.79
2018-10-18T10:37:20.175Z,28.88
2018-10-18T10:39:48.613Z,29.09
2018-10-18T10:42:17.834Z,29.00
2018-10-18T10:44:44.546Z,29.10
2018-10-18T10:47:12.514Z,29.13
2018-10-18T10:49:37.851Z,29.25
2018-10-18T10:52:06.630Z,29.14
2018-10-18T10:54:31.222Z,29.37
2018-10-18T10:56:57.890Z,29.21
2018-10-18T10:59:41.513Z,29.16
2018-10-18T11:02:11.369Z,29.35
2018-10-18T11:04:38.065Z,29.33
2018-10-18T11:07:09.198Z,29.33
2018-10-18T11:09:36.010Z,29.26
2018-10-18T11:12:02.745Z,29.13
2018-10-18T11:14:29.332Z,29.25
2018-10-18T11:17:01.176Z,29.32
2018-10-18T11:19:27.789Z,29.31
2018-10-18T11:21:54.429Z,29.21
2018-10-18T11:24:21.198Z,29.15
2018-10-18T11:26:47.844Z,29.19
2018-10-18T11:29:14.730Z,29.25
2018-10-18T11:31:41.417Z,29.25
2018-10-18T11:34:08.081Z,29.40
2018-10-18T11:36:34.753Z,29.58
2018-10-18T11:39:01.390Z,29.60
2018-10-18T11:41:29.090Z,29.59
2018-10-18T11:43:55.856Z,29.32
2018-10-18T11:46:22.507Z,29.60
2018-10-18T11:48:52.039Z,29.55
2018-10-18T11:51:18.748Z,29.60
2018-10-18T11:53:45.407Z,29.64
2018-10-18T11:56:12.156Z,29.56
2018-10-18T11:58:39.566Z,29.61
2018-10-18T12:01:06.326Z,29.62
2018-10-18T12:03:32.961Z,29.55
2018-10-18T12:05:59.701Z,29.53
2018-10-18T12:08:26.456Z,29.64
2018-10-18T12:10:53.207Z,29.62
2018-10-18T12:13:19.864Z,29.62
2018-10-18T12:15:46.686Z,29.69
2018-10-18T12:18:13.327Z,29.66
2018-10-18T12:20:40.066Z,29.83
2018-10-18T12:23:06.759Z,29.57
2018-10-18T12:25:33.366Z,29.74
2018-10-18T12:30:26.762Z,29.85
2018-10-18T12:32:55.456Z,29.91
2018-10-18T12:35:22.089Z,29.61
2018-10-18T12:37:48.727Z,29.61
2018-10-18T12:40:15.477Z,29.40
2018-10-18T12:42:42.085Z,29.78
2018-10-18T12:45:08.734Z,29.49
2018-10-18T12:47:35.447Z,29.40
2018-10-18T12:50:02.231Z,29.20
2018-10-18T12:52:28.797Z,29.57
2018-10-18T12:54:55.440Z,29.37
2018-10-18T12:57:22.170Z,29.31
2018-10-18T12:59:48.826Z,28.82
2018-10-18T13:02:15.617Z,29.11
2018-10-18T13:04:42.131Z,29.25
2018-10-18T13:07:08.872Z,28.87
2018-10-18T13:09:35.611Z,28.56
2018-10-18T13:12:02.289Z,28.38
2018-10-18T13:14:28.936Z,28.61
2018-10-18T13:16:56.083Z,28.68
2018-10-18T13:19:22.787Z,28.23
2018-10-18T13:21:49.556Z,28.16
2018-10-18T13:24:16.338Z,28.59
2018-10-18T13:26:42.991Z,28.63
2018-10-18T13:29:09.657Z,28.31
2018-10-18T13:31:36.378Z,28.57
2018-10-18T13:34:05.385Z,28.38
2018-10-18T13:36:31.981Z,27.99
2018-10-18T13:38:58.702Z,28.37
2018-10-18T13:41:25.435Z,27.93
2018-10-18T13:43:52.171Z,28.23
2018-10-18T13:46:18.869Z,28.04
2018-10-18T13:48:45.474Z,28.24
2018-10-18T13:51:12.143Z,28.24
2018-10-18T13:53:41.000Z,28.16
2018-10-18T13:56:07.907Z,27.83
2018-10-18T13:58:34.469Z,27.55
2018-10-18T14:01:01.431Z,27.75
2018-10-18T14:03:28.095Z,27.83
2018-10-18T14:05:54.744Z,27.44
2018-10-18T14:08:21.496Z,27.49
2018-10-18T14:10:49.440Z,27.50
2018-10-18T14:13:14.925Z,27.54
2018-10-18T14:15:41.656Z,27.29
2018-10-18T14:18:08.310Z,27.47
2018-10-18T14:20:34.955Z,27.27
2018-10-18T14:23:01.674Z,27.32
2018-10-18T14:27:54.617Z,27.11
2018-10-18T14:30:21.393Z,27.04
2018-10-18T14:32:47.954Z,27.26
2018-10-18T14:35:14.773Z,27.04
2018-10-18T14:37:41.389Z,27.09
2018-10-18T14:40:08.049Z,27.34
2018-10-18T14:42:34.685Z,27.73
2018-10-18T14:45:01.456Z,27.28
2018-10-18T14:47:28.113Z,27.40
2018-10-18T14:49:54.710Z,27.38
2018-10-18T14:52:21.415Z,27.30
2018-10-18T14:54:48.041Z,27.36
2018-10-18T14:57:14.697Z,27.47
2018-10-18T14:59:41.361Z,27.58
2018-10-18T15:02:08.105Z,27.64
2018-10-18T15:04:39.380Z,27.66
2018-10-18T15:07:01.348Z,27.63
2018-10-18T15:09:29.185Z,27.54
2018-10-18T15:11:55.678Z,27.51
2018-10-18T15:14:24.487Z,27.65
2018-10-18T15:16:48.985Z,27.74
2018-10-18T15:19:15.673Z,27.79
2018-10-18T15:21:42.455Z,27.78
2018-10-18T15:24:09.060Z,27.77
2018-10-18T15:26:36.199Z,27.89
2018-10-18T15:29:02.760Z,27.86
2018-10-18T15:31:29.312Z,27.91
2018-10-18T15:33:56.016Z,28.21
2018-10-18T15:36:22.734Z,28.42
2018-10-18T15:38:49.517Z,28.69
2018-10-18T15:41:16.187Z,28.67
2018-10-18T15:43:42.837Z,28.92
2018-10-18T15:46:09.483Z,29.15
2018-10-18T15:48:36.122Z,29.24
2018-10-18T15:51:02.946Z,29.22
2018-10-18T15:53:29.626Z,29.62
2018-10-18T15:55:59.107Z,29.55
2018-10-18T15:58:25.881Z,29.99
2018-10-18T16:00:53.674Z,30.38
2018-10-18T16:03:20.339Z,30.12
2018-10-18T16:05:47.082Z,30.56
2018-10-18T16:08:13.776Z,30.56
2018-10-18T16:10:41.706Z,30.36
2018-10-18T16:13:07.303Z,30.41
2018-10-18T16:15:33.991Z,30.43
2018-10-18T16:18:00.681Z,30.26
2018-10-18T16:20:27.301Z,30.45
2018-10-18T16:22:53.930Z,30.28
2018-10-18T16:25:22.293Z,30.25
2018-10-18T16:27:48.633Z,30.23
2018-10-18T16:30:13.984Z,30.13
2018-10-18T16:32:40.657Z,30.19
2018-10-18T16:35:07.372Z,29.81
2018-10-18T16:37:33.998Z,30.01
2018-10-18T16:40:00.658Z,30.06
2018-10-18T16:42:27.377Z,29.91
2018-10-18T16:44:55.705Z,29.90
2018-10-18T16:47:20.685Z,29.86
2018-10-18T16:49:47.369Z,29.92
2018-10-18T16:52:14.015Z,29.82
2018-10-18T16:54:42.986Z,29.90
2018-10-18T16:57:10.904Z,29.85
2018-10-18T16:59:36.253Z,29.81
2018-10-18T17:02:02.932Z,29.71
2018-10-18T17:04:30.975Z,29.56
2018-10-18T17:06:56.242Z,29.51
2018-10-18T17:09:22.893Z,29.41
2018-10-18T17:11:49.534Z,29.54
2018-10-18T17:14:16.327Z,29.58
2018-10-18T17:16:42.923Z,29.28
2018-10-18T17:19:09.619Z,29.35
2018-10-18T17:21:36.263Z,29.30
2018-10-18T17:24:02.958Z,29.29
2018-10-18T17:26:29.663Z,29.24
2018-10-18T17:28:56.299Z,29.24
2018-10-18T17:31:22.983Z,29.23
2018-10-18T17:33:49.778Z,29.20
2018-10-18T17:36:17.549Z,29.16
2018-10-18T17:38:43.097Z,29.10
2018-10-18T17:41:09.920Z,29.12
2018-10-18T17:43:36.562Z,29.14
2018-10-18T17:46:03.564Z,29.16
2018-10-18T17:48:30.244Z,29.15
2018-10-18T17:50:56.984Z,29.19
2018-10-18T17:53:23.706Z,29.23
2018-10-18T17:55:53.729Z,29.24
2018-10-18T17:58:20.454Z,29.22
2018-10-18T18:00:47.184Z,29.29
2018-10-18T18:03:13.834Z,29.30
2018-10-18T18:05:40.476Z,29.29
2018-10-18T18:08:07.257Z,29.27
2018-10-18T18:10:33.875Z,29.36
2018-10-18T18:13:00.806Z,29.39
2018-10-18T18:15:27.441Z,29.43
2018-10-18T18:17:54.146Z,29.44
2018-10-18T18:20:20.855Z,29.46
2018-10-18T18:22:47.608Z,29.48
2018-10-18T18:25:14.193Z,29.48
2018-10-18T18:27:40.849Z,29.47
2018-10-18T18:30:07.489Z,29.26
2018-10-18T18:32:36.258Z,29.49
2018-10-18T18:35:02.919Z,29.56
2018-10-18T18:37:29.690Z,29.56
2018-10-18T18:39:56.291Z,29.57
2018-10-18T18:42:22.933Z,29.66
2018-10-18T18:44:49.990Z,29.66
2018-10-18T18:47:16.832Z,29.68
2018-10-18T18:49:45.532Z,29.71
2018-10-18T18:52:10.048Z,29.78
2018-10-18T18:54:36.703Z,29.81
2018-10-18T18:57:03.485Z,29.81
2018-10-18T18:59:30.113Z,29.82
2018-10-18T19:01:56.918Z,29.88
2018-10-18T19:04:23.595Z,29.91
2018-10-18T19:06:50.301Z,29.93
2018-10-18T19:09:16.943Z,29.93
2018-10-18T19:11:44.932Z,30.00
2018-10-18T19:14:10.271Z,29.97
2018-10-18T19:16:37.038Z,30.00
2018-10-18T19:19:03.662Z,30.03
2018-10-18T19:21:30.360Z,30.03
2018-10-18T19:23:58.444Z,30.03
2018-10-18T19:26:23.710Z,30.07
2018-10-18T19:28:50.402Z,30.20
2018-10-18T19:31:17.034Z,30.04
2018-10-18T19:33:43.743Z,30.08
2018-10-18T19:36:10.435Z,30.08
2018-10-18T19:38:37.119Z,30.13
2018-10-18T19:41:03.781Z,30.09
2018-10-18T19:43:30.551Z,30.20
2018-10-18T19:45:57.290Z,30.13
2018-10-18T19:48:23.888Z,30.19
2018-10-18T19:50:50.670Z,30.14
2018-10-18T19:53:17.309Z,30.16
2018-10-18T19:55:43.947Z,30.17
2018-10-18T19:58:11.978Z,30.21
2018-10-18T20:00:37.276Z,30.19
2018-10-18T20:03:04.017Z,30.22
2018-10-18T20:05:32.413Z,30.21
2018-10-18T20:07:57.432Z,30.32
2018-10-18T20:10:24.039Z,30.31
2018-10-18T20:12:50.717Z,30.31
2018-10-18T20:15:17.441Z,30.31
2018-10-18T20:17:43.988Z,30.32
2018-10-18T20:20:10.695Z,30.38
2018-10-18T20:22:37.325Z,30.32
2018-10-18T20:25:04.232Z,30.43
2018-10-18T20:27:30.615Z,30.39
2018-10-18T20:29:57.424Z,30.41
2018-10-18T20:32:24.066Z,30.49
2018-10-18T20:34:50.665Z,30.43
2018-10-18T20:37:17.469Z,30.47
2018-10-18T20:39:44.314Z,30.53
2018-10-18T20:42:11.859Z,30.51
2018-10-18T20:44:38.528Z,30.56
2018-10-18T20:47:05.258Z,30.56
2018-10-18T20:49:31.978Z,30.60
2018-10-18T20:51:58.619Z,30.62
2018-10-18T20:54:25.511Z,30.67
2018-10-18T20:56:52.188Z,30.69
2018-10-18T20:59:18.799Z,30.62
2018-10-18T21:01:45.459Z,30.67
2018-10-18T21:04:12.209Z,30.71
2018-10-18T21:06:38.987Z,30.64
2018-10-18T21:09:06.909Z,30.70
2018-10-18T21:11:32.267Z,30.73
2018-10-18T21:13:59.038Z,30.77
2018-10-18T21:16:25.678Z,30.84
2018-10-18T21:18:52.387Z,30.82
2018-10-18T21:21:19.080Z,30.80
2018-10-18T21:23:45.725Z,30.86
2018-10-18T21:26:12.371Z,30.93
2018-10-18T21:28:43.256Z,30.90
2018-10-18T21:31:13.221Z,30.97
2018-10-18T21:33:39.859Z,31.00
2018-10-18T21:36:06.545Z,31.05
2018-10-18T21:38:33.183Z,30.98
2018-10-18T21:40:59.986Z,31.05
2018-10-18T21:43:26.607Z,31.04
2018-10-18T21:45:53.320Z,31.10
2018-10-18T21:48:21.310Z,31.08
2018-10-18T21:50:46.650Z,31.08
2018-10-18T21:53:13.398Z,31.17
2018-10-18T21:55:40.013Z,31.22
2018-10-18T21:58:06.760Z,31.17
2018-10-18T22:00:33.356Z,31.21
2018-10-18T22:03:00.094Z,31.27
2018-10-18T22:05:30.632Z,31.26
2018-10-18T22:07:56.216Z,31.33
2018-10-18T22:10:24.741Z,31.38
2018-10-18T22:12:49.620Z,31.37
2018-10-18T22:15:16.308Z,31.41
2018-10-18T22:17:45.039Z,31.38
2018-10-18T22:20:15.063Z,31.44
2018-10-18T22:22:41.702Z,31.43
2018-10-18T22:25:08.401Z,31.42
2018-10-18T22:27:35.043Z,31.45
2018-10-18T22:30:01.740Z,31.44
2018-10-18T22:32:28.448Z,31.50
2018-10-18T22:34:55.108Z,31.47
2018-10-18T22:37:23.829Z,31.55
2018-10-18T22:39:48.439Z,31.50
2018-10-18T22:42:15.140Z,31.52
2018-10-18T22:44:41.821Z,31.51
2018-10-18T22:47:08.454Z,31.55
2018-10-18T22:49:35.175Z,31.51
2018-10-18T22:52:01.816Z,31.56
2018-10-18T22:54:28.591Z,31.61
2018-10-18T22:56:55.237Z,31.61
2018-10-18T22:59:21.879Z,31.61
2018-10-18T23:01:48.567Z,31.61
2018-10-18T23:04:15.268Z,31.59
2018-10-18T23:06:43.318Z,31.62
2018-10-18T23:09:08.740Z,31.65
2018-10-18T23:11:35.312Z,31.63
2018-10-18T23:14:01.950Z,31.64
2018-10-18T23:16:28.601Z,31.63
2018-10-18T23:18:55.241Z,31.65
2018-10-18T23:21:21.895Z,31.68
2018-10-18T23:23:48.634Z,31.69
2018-10-18T23:26:15.285Z,31.69
2018-10-18T23:28:41.942Z,31.72
2018-10-18T23:31:08.635Z,31.70
2018-10-18T23:33:35.379Z,31.71
2018-10-18T23:36:04.974Z,31.71
2018-10-18T23:38:31.628Z,31.78
2018-10-18T23:40:58.341Z,31.81
2018-10-18T23:43:25.011Z,31.90
2018-10-18T23:45:51.665Z,31.82
2018-10-18T23:48:18.329Z,31.78
2018-10-18T23:50:44.983Z,31.76
2018-10-18T23:53:11.688Z,31.85
2018-10-18T23:55:38.270Z,31.82
2018-10-18T23:58:04.910Z,31.92
